M I D A S
Marine Information and Data Acquisition System
Tripno 1224 of the Zeeleeuw from 2007-03-05 08:13:01 to 2007-03-05 14:10:23
Back to CruiseResearch ActivitiesStationsMapUnderway DataData graphs

EquipmentUnitsComment
TimeDGPSUTC
LatitudeDGPSDM.mWGS84
LongitudeDGPSDM.mWGS84
TemperatureSBE03/SBE38deg celciusITS90
ConductivitySBE21S/mITS90
SalinitySBE21 Practical Salinity Units
ChlorophylAChelsea fluorimeterg/lCalibrated in Aceton
Missing or incorrect values are displayed as -999
Sea surface data collected by the RV Zeeleeuw from 2007-03-05 08:16:05 to 2007-03-05 14:20:24
Time Latitude Longitude Temperature Conductivity Salinity ChlorophylA
2007-03-05 08:17:14 51°13.619 2°56.019 15.2186 4.66116 31.391695 -2.871232
2007-03-05 08:18:14 51°13.647 2°55.925 15.2138 4.660744 31.392104 -2.871232
2007-03-05 08:19:12 51°13.675 2°55.846 15.2143 4.660433 31.392117 -2.871232
2007-03-05 08:20:11 51°13.694 2°55.787 15.2142 4.660018 31.391937 -2.871232
2007-03-05 08:21:10 51°13.703 2°55.775 15.2232 4.659602 31.391757 -2.871232
2007-03-05 08:22:10 51°13.701 2°55.754 15.2243 4.659291 31.391179 -2.871232
2007-03-05 08:23:10 51°13.698 2°55.744 15.2488 4.658876 31.390409 -2.871232
2007-03-05 08:24:10 51°13.714 2°55.745 15.3467 4.65846 31.390229 -2.871232
2007-03-05 08:25:10 51°13.774 2°55.689 15.2219 4.658253 31.389254 -2.871232
2007-03-05 08:26:10 51°13.885 2°55.605 15.1552 4.657837 31.390254 -2.871232
2007-03-05 08:27:10 51°14.008 2°55.512 15.2218 4.657526 31.390857 -2.871232
2007-03-05 08:28:10 51°14.13 2°55.419 15.2484 4.657111 31.389497 -2.871232
2007-03-05 08:29:10 51°14.241 2°55.304 15.351 4.656799 31.3901 -2.871232
2007-03-05 08:30:11 51°14.333 2°55.146 15.2101 4.656384 31.388739 -2.871232
2007-03-05 08:31:10 51°14.447 2°54.998 14.837 4.655553 31.387199 -2.871232
2007-03-05 08:32:09 51°14.585 2°54.886 14.845 4.655449 31.388778 -2.871232
2007-03-05 08:33:09 51°14.718 2°54.754 14.6529 4.655138 31.387609 -2.871232
2007-03-05 08:34:09 51°14.87 2°54.611 14.5621 4.653892 31.382345 -2.871232
2007-03-05 08:35:09 51°15.041 2°54.436 14.5109 4.653788 31.385106 -2.871232
2007-03-05 08:36:10 51°15.216 2°54.255 14.4827 4.653477 31.385709 -2.871232
2007-03-05 08:37:09 51°15.391 2°54.077 14.4891 4.653373 31.381972 -2.871232
2007-03-05 08:38:10 51°15.579 2°53.891 14.5101 4.652854 31.385144 -2.871232
2007-03-05 08:39:09 51°15.759 2°53.709 14.5159 4.652335 31.386545 -2.871232
2007-03-05 08:40:09 51°15.942 2°53.526 14.5202 4.651816 31.386764 -2.871232
2007-03-05 08:41:09 51°16.122 2°53.338 14.525 4.651193 31.386791 -2.871232
2007-03-05 08:42:10 51°16.305 2°53.148 14.5428 4.65057 31.386817 -2.871232
2007-03-05 08:43:09 51°16.486 2°52.975 14.5667 4.649947 31.38507 -2.871232
2007-03-05 08:44:09 51°16.689 2°52.872 14.5786 4.64922 31.385496 -2.871232
2007-03-05 08:45:09 51°16.881 2°52.75 14.6012 4.648493 31.383556 -2.871232
2007-03-05 08:46:09 51°17.074 2°52.626 14.6299 4.647974 31.383184 -2.871232
2007-03-05 08:47:10 51°17.27 2°52.501 14.6505 4.647351 31.383803 -2.871232
2007-03-05 08:48:09 51°17.46 2°52.375 14.6659 4.646729 31.383239 -2.871232
2007-03-05 08:49:10 51°17.657 2°52.246 14.6732 4.646209 31.383459 -2.871232
2007-03-05 08:50:09 51°17.844 2°52.119 14.6837 4.645586 31.378752 -2.871232
2007-03-05 08:51:09 51°18.03 2°51.98 14.701 4.644964 31.378779 -2.871232
2007-03-05 08:52:09 51°18.215 2°51.835 14.7171 4.644237 31.381574 -2.871232
2007-03-05 08:53:09 51°18.402 2°51.684 14.7281 4.643614 31.379234 -2.871232
2007-03-05 08:54:10 51°18.589 2°51.533 14.7597 4.642887 31.379661 -2.871232
2007-03-05 08:55:09 51°18.73 2°51.401 8.8602 3.440938 28.27199 -2.871232
2007-03-05 08:56:09 51°18.859 2°51.275 8.7988 3.651539 32.836461 -2.871232
2007-03-05 08:57:09 51°18.987 2°51.149 8.7442 3.643667 32.881455 -2.871232
2007-03-05 08:58:09 51°19.115 2°51.024 8.7292 3.625435 32.754286 -2.871232
2007-03-05 08:59:09 51°19.24 2°50.897 8.7258 3.64574 32.989142 -2.871232
2007-03-05 09:00:09 51°19.301 2°50.81 8.7409 3.624607 32.801906 -2.871232
2007-03-05 09:01:10 51°19.304 2°50.802 8.725 3.636831 32.917927 -2.871232
2007-03-05 09:02:09 51°19.301 2°50.812 8.7207 3.626472 32.82856 -2.871232
2007-03-05 09:03:09 51°19.293 2°50.82 8.7198 3.598813 32.561593 -2.871232
2007-03-05 09:04:09 51°19.285 2°50.825 8.7149 3.644912 33.03456 -2.871232
2007-03-05 09:05:10 51°19.278 2°50.83 8.7044 3.647398 33.068464 -2.871232
2007-03-05 09:06:09 51°19.271 2°50.833 8.705 3.639732 32.989398 -2.871232
2007-03-05 09:07:09 51°19.265 2°50.837 8.7096 3.640043 32.990768 -2.871232
2007-03-05 09:08:09 51°19.259 2°50.844 8.7176 3.635278 32.947136 -2.871232
2007-03-05 09:09:09 51°19.252 2°50.849 8.7085 3.643772 33.02925 -2.871232
2007-03-05 09:10:10 51°19.244 2°50.855 8.713 3.641182 33.002256 -2.871232
2007-03-05 09:11:09 51°19.237 2°50.86 8.7112 3.646259 33.056971 -2.871232
2007-03-05 09:12:09 51°19.23 2°50.865 8.719 3.642218 33.020643 -2.871232
2007-03-05 09:13:09 51°19.223 2°50.872 8.7132 3.643772 33.036314 -2.871232
2007-03-05 09:14:09 51°19.214 2°50.879 8.7129 3.630512 32.907022 -2.871232
2007-03-05 09:15:09 51°19.222 2°50.873 8.7144 3.653511 33.140747 -2.871232
2007-03-05 09:16:10 51°19.279 2°50.882 8.7186 3.652268 33.125545 -2.871232
2007-03-05 09:17:10 51°19.332 2°50.967 8.7236 3.65465 33.146929 -2.871232
2007-03-05 09:18:09 51°19.373 2°51.063 8.7257 3.657447 33.171607 -2.871232
2007-03-05 09:19:09 51°19.407 2°51.141 8.7236 3.658898 33.18713 -2.871232
2007-03-05 09:20:09 51°19.438 2°51.218 8.7234 3.659416 33.190582 -2.871232
2007-03-05 09:21:10 51°19.467 2°51.294 8.7191 3.657655 33.174585 -2.871232
2007-03-05 09:22:09 51°19.496 2°51.365 8.72 3.658794 33.187859 -2.871232
2007-03-05 09:23:09 51°19.524 2°51.437 8.7191 3.658587 33.186655 -2.871232
2007-03-05 09:24:09 51°19.552 2°51.514 8.7202 3.659105 33.19277 -2.871232
2007-03-05 09:25:09 51°19.581 2°51.589 8.7168 3.658173 33.185135 -2.871232
2007-03-05 09:26:10 51°19.611 2°51.666 8.717 3.660245 33.206935 -2.871232
2007-03-05 09:27:09 51°19.641 2°51.736 8.7161 3.659934 33.204686 -2.871232
2007-03-05 09:28:09 51°19.672 2°51.807 8.7166 3.65175 33.122975 -2.871232
2007-03-05 09:29:09 51°19.701 2°51.885 8.7139 3.659002 33.197938 -2.871232
2007-03-05 09:30:09 51°19.733 2°51.959 8.7116 3.660452 33.213467 -2.871232
2007-03-05 09:31:09 51°19.764 2°52.032 8.7037 3.658069 33.193852 -2.871232
2007-03-05 09:32:10 51°19.798 2°52.105 8.6953 3.659416 33.214556 -2.871232
2007-03-05 09:33:10 51°19.833 2°52.177 8.6844 3.656619 33.195192 -2.871232
2007-03-05 09:34:09 51°19.866 2°52.248 8.6715 3.65175 33.15933 -2.871232
2007-03-05 09:35:09 51°19.899 2°52.322 8.6592 3.648953 33.141722 -2.871232
2007-03-05 09:36:09 51°19.931 2°52.394 8.6515 3.648332 33.146094 -2.871232
2007-03-05 09:37:10 51°19.964 2°52.469 8.6396 3.645742 33.130569 -2.871232
2007-03-05 09:38:09 51°19.997 2°52.542 8.6322 3.63963 33.07854 -2.871232
2007-03-05 09:39:09 51°20.031 2°52.615 8.6234 3.638283 33.074678 -2.871232
2007-03-05 09:40:10 51°20.068 2°52.684 8.6169 3.637351 33.071458 -2.871232
2007-03-05 09:41:09 51°20.101 2°52.755 8.6143 3.637558 33.079763 -2.871232
2007-03-05 09:42:10 51°20.135 2°52.827 8.6085 3.635175 33.058323 -2.871232
2007-03-05 09:43:10 51°20.167 2°52.9 8.6089 3.635279 33.062919 -2.871232
2007-03-05 09:44:10 51°20.198 2°52.975 8.6065 3.62119 32.922206 -2.871232
2007-03-05 09:45:09 51°20.228 2°53.049 8.6062 3.629581 33.010601 -2.871232
2007-03-05 09:46:09 51°20.261 2°53.121 8.6045 3.630099 33.016726 -2.871232
2007-03-05 09:47:09 51°20.292 2°53.197 8.6045 3.630825 33.024062 -2.871232
2007-03-05 09:48:10 51°20.326 2°53.271 8.6055 3.628338 32.998027 -2.871232
2007-03-05 09:49:10 51°20.36 2°53.343 8.6058 3.63155 33.029625 -2.871232
2007-03-05 09:50:09 51°20.392 2°53.415 8.6065 3.631757 33.032608 -2.871232
2007-03-05 09:51:10 51°20.421 2°53.494 8.6058 3.619222 32.904956 -2.871232
2007-03-05 09:52:09 51°20.436 2°53.579 8.6067 3.628338 32.996256 -2.871232
2007-03-05 09:53:10 51°20.435 2°53.663 8.6084 3.629271 33.004801 -2.871232
2007-03-05 09:54:09 51°20.423 2°53.74 8.6086 3.624712 32.956935 -2.871232
2007-03-05 09:55:09 51°20.401 2°53.799 8.6076 3.627406 32.983287 -2.871232
2007-03-05 09:56:10 51°20.379 2°53.839 8.6098 3.631964 33.027614 -2.871232
2007-03-05 09:57:10 51°20.358 2°53.871 8.6097 3.631032 33.017299 -2.871232
2007-03-05 09:58:09 51°20.338 2°53.897 8.6104 3.626784 32.974348 -2.871232
2007-03-05 09:59:09 51°20.317 2°53.929 8.611 3.627406 32.979748 -2.871232
2007-03-05 10:00:10 51°20.279 2°53.97 8.6106 3.628545 32.99127 -2.871232
2007-03-05 10:01:10 51°20.228 2°53.998 8.6088 3.632275 33.030757 -2.871232
2007-03-05 10:02:10 51°20.156 2°54.002 8.6093 3.630306 33.009965 -2.871232
2007-03-05 10:03:10 51°20.067 2°54.015 8.609 3.631135 33.019232 -2.871232
2007-03-05 10:04:10 51°19.975 2°54.011 8.6076 3.62782 32.984823 -2.871232
2007-03-05 10:05:10 51°19.866 2°53.988 8.6115 3.630928 33.016251 -2.871232
2007-03-05 10:06:09 51°19.748 2°53.959 8.6136 3.633 33.034547 -2.871232
2007-03-05 10:07:09 51°19.632 2°53.941 8.6159 3.623158 32.931505 -2.871232
2007-03-05 10:08:09 51°19.517 2°53.916 8.6188 3.63445 33.044783 -2.871232
2007-03-05 10:09:10 51°19.398 2°53.891 8.6249 3.639423 33.090638 -2.871232
2007-03-05 10:10:10 51°19.28 2°53.864 8.6272 3.636418 33.05671 -2.871232
2007-03-05 10:11:09 51°19.164 2°53.845 8.6312 3.636833 33.057354 -2.871232
2007-03-05 10:12:09 51°19.049 2°53.821 8.6307 3.639423 33.080879 -2.871232
2007-03-05 10:13:09 51°18.931 2°53.793 8.632 3.642012 33.106179 -2.871232
2007-03-05 10:14:10 51°18.811 2°53.762 8.6336 3.640873 33.093769 -2.871232
2007-03-05 10:15:10 51°18.692 2°53.731 8.6304 3.641702 33.102149 -2.871232
2007-03-05 10:16:10 51°18.572 2°53.704 8.6277 3.637351 33.060818 -2.871232
2007-03-05 10:17:09 51°18.455 2°53.679 8.6253 3.638697 33.077095 -2.871232
2007-03-05 10:18:10 51°18.333 2°53.646 8.6223 3.634761 33.039065 -2.871232
2007-03-05 10:19:10 51°18.211 2°53.621 8.6202 3.632067 33.015377 -2.871232
2007-03-05 10:20:10 51°18.09 2°53.592 8.6168 3.629685 32.993943 -2.871232
2007-03-05 10:21:10 51°17.955 2°53.545 8.6154 3.630514 33.004977 -2.871232
2007-03-05 10:22:10 51°17.811 2°53.493 8.6191 3.625334 32.952612 -2.871232
2007-03-05 10:23:10 51°17.666 2°53.441 8.619 3.625334 32.951728 -2.871232
2007-03-05 10:24:09 51°17.523 2°53.393 8.6179 3.623884 32.937068 -2.871232
2007-03-05 10:25:10 51°17.374 2°53.343 8.6149 3.617564 32.873205 -2.871232
2007-03-05 10:26:10 51°17.226 2°53.293 8.6123 3.618082 32.881085 -2.871232
2007-03-05 10:27:10 51°17.077 2°53.243 8.6093 3.612903 32.832268 -2.871232
2007-03-05 10:28:09 51°16.93 2°53.195 8.6104 3.613525 32.838549 -2.871232
2007-03-05 10:29:10 51°16.779 2°53.149 8.6094 3.608138 32.785002 -2.871232
2007-03-05 10:30:10 51°16.631 2°53.106 8.6096 3.615596 32.859486 -2.871232
2007-03-05 10:31:10 51°16.484 2°53.063 8.6078 3.61829 32.887589 -2.871232
2007-03-05 10:32:10 51°16.337 2°53.016 8.606 3.621812 32.924957 -2.871232
2007-03-05 10:33:10 51°16.192 2°52.977 8.6045 3.622537 32.934939 -2.871232
2007-03-05 10:34:10 51°16.043 2°52.971 8.6049 3.62233 32.933728 -2.871232
2007-03-05 10:35:09 51°15.894 2°52.998 8.6009 3.617357 32.880811 -2.871232
2007-03-05 10:36:10 51°15.741 2°53.025 8.5967 3.600783 32.720363 -2.871232
2007-03-05 10:37:10 51°15.591 2°53.064 8.5968 3.586903 32.582798 -2.871232
2007-03-05 10:38:10 51°15.412 2°53.11 8.596 3.581413 32.527371 -2.871232
2007-03-05 10:39:09 51°15.203 2°53.153 8.5935 3.588664 32.60058 -2.871232
2007-03-05 10:40:09 51°14.991 2°53.194 8.5895 3.602855 32.747445 -2.871232
2007-03-05 10:41:10 51°14.775 2°53.242 8.5898 3.605548 32.775543 -2.871232
2007-03-05 10:42:10 51°14.568 2°53.295 8.6001 3.610521 32.823161 -2.871232
2007-03-05 10:43:10 51°14.358 2°53.348 8.5925 3.611453 32.8273 -2.871232
2007-03-05 10:44:10 51°14.157 2°53.311 8.5734 3.565565 32.378737 -2.871232
2007-03-05 10:45:10 51°14.025 2°53.078 8.5725 3.530764 32.038128 -2.871232
2007-03-05 10:46:10 51°13.924 2°52.802 8.5713 3.536875 32.103175 -2.871232
2007-03-05 10:47:10 51°13.799 2°52.548 8.5782 3.539568 32.132054 -2.871232
2007-03-05 10:48:10 51°13.672 2°52.298 8.5833 3.550132 32.232563 -2.871232
2007-03-05 10:49:10 51°13.543 2°52.048 8.5883 3.555933 32.285881 -2.871232
2007-03-05 10:50:10 51°13.414 2°51.799 8.5927 3.558211 32.305403 -2.871232
2007-03-05 10:51:10 51°13.304 2°51.53 8.5954 3.562872 32.348957 -2.871232
2007-03-05 10:52:10 51°13.201 2°51.257 8.5992 3.570019 32.416728 -2.871232
2007-03-05 10:53:10 51°13.096 2°50.987 8.5991 3.572609 32.441119 -2.871232
2007-03-05 10:54:10 51°12.997 2°50.712 8.5977 3.575198 32.469868 -2.871232
2007-03-05 10:55:11 51°12.897 2°50.429 8.6006 3.579652 32.513957 -2.871232
2007-03-05 10:56:10 51°12.802 2°50.152 8.6144 3.593739 32.650088 -2.871232
2007-03-05 10:57:10 51°12.704 2°49.872 8.6227 3.602233 32.723602 -2.871232
2007-03-05 10:58:10 51°12.607 2°49.595 8.6327 3.602751 32.717426 -2.871232
2007-03-05 10:59:10 51°12.516 2°49.314 8.6363 3.602544 32.710072 -2.871232
2007-03-05 11:00:11 51°12.424 2°49.027 8.6334 3.600058 32.685853 -2.871232
2007-03-05 11:01:10 51°12.33 2°48.757 8.6352 3.5984 32.669125 -2.871232
2007-03-05 11:02:11 51°12.22 2°48.487 8.6364 3.596432 32.648386 -2.871232
2007-03-05 11:03:10 51°12.115 2°48.227 8.6345 3.594153 32.625388 -2.871232
2007-03-05 11:04:10 51°12.019 2°47.953 8.6413 3.592496 32.606043 -2.871232
2007-03-05 11:05:10 51°11.924 2°47.679 8.6449 3.591149 32.587216 -2.871232
2007-03-05 11:06:11 51°11.831 2°47.401 8.645 3.590321 32.578857 -2.871232
2007-03-05 11:07:10 51°11.741 2°47.13 8.6465 3.591253 32.586515 -2.871232
2007-03-05 11:08:10 51°11.652 2°46.856 8.6468 3.591874 32.59191 -2.871232
2007-03-05 11:09:11 51°11.565 2°46.577 8.6484 3.590321 32.576238 -2.871232
2007-03-05 11:10:10 51°11.475 2°46.31 8.6502 3.58742 32.544371 -2.871232
2007-03-05 11:11:11 51°11.385 2°46.035 8.6512 3.585659 32.525744 -2.871232
2007-03-05 11:12:10 51°11.302 2°45.772 8.6452 3.583691 32.507642 -2.871232
2007-03-05 11:13:10 51°11.221 2°45.52 8.6472 3.581827 32.490585 -2.871232
2007-03-05 11:14:10 51°11.144 2°45.285 8.6471 3.580687 32.479968 -2.871232
2007-03-05 11:15:10 51°11.07 2°45.05 8.6471 3.579962 32.471788 -2.871232
2007-03-05 11:16:10 51°10.998 2°44.815 8.6482 3.579237 32.463609 -2.871232
2007-03-05 11:17:10 51°10.926 2°44.578 8.6521 3.57903 32.458911 -2.871232
2007-03-05 11:18:11 51°10.857 2°44.332 8.6555 3.579237 32.457521 -2.871232
2007-03-05 11:19:10 51°10.793 2°44.092 8.6635 3.579341 32.455957 -2.871232
2007-03-05 11:20:10 51°10.73 2°43.846 8.6695 3.580169 32.456484 -2.871232
2007-03-05 11:21:10 51°10.669 2°43.598 8.6731 3.580584 32.455444 -2.871232
2007-03-05 11:22:11 51°10.614 2°43.342 8.6771 3.580998 32.457881 -2.871232
2007-03-05 11:23:10 51°10.561 2°43.096 8.6791 3.582966 32.47423 -2.871232
2007-03-05 11:24:10 51°10.506 2°42.849 8.6817 3.585763 32.500666 -2.871232
2007-03-05 11:25:11 51°10.45 2°42.598 8.6822 3.587006 32.509709 -2.871232
2007-03-05 11:26:11 51°10.396 2°42.355 8.6961 3.581101 32.446763 -2.871232
2007-03-05 11:27:10 51°10.344 2°42.127 8.6949 3.543917 32.065741 -2.871232
2007-03-05 11:28:10 51°10.291 2°41.892 8.6975 3.523824 31.86301 -2.871232
2007-03-05 11:29:11 51°10.237 2°41.653 8.6942 3.525585 31.878135 -2.871232
2007-03-05 11:30:10 51°10.185 2°41.421 8.7021 3.539049 32.015959 -2.871232
2007-03-05 11:31:10 51°10.132 2°41.185 8.7169 3.542156 32.036045 -2.871232
2007-03-05 11:32:10 51°10.078 2°40.95 8.7322 3.550234 32.107784 -2.871232
2007-03-05 11:33:10 51°10.035 2°40.709 8.7502 3.562146 32.212857 -2.871232
2007-03-05 11:34:11 51°10.004 2°40.458 8.7645 3.58079 32.378648 -2.871232
2007-03-05 11:35:10 51°9.975 2°40.218 8.7754 3.593323 32.495097 -2.871232
2007-03-05 11:36:11 51°10.006 2°39.987 8.7754 3.600988 32.559994 -2.871232
2007-03-05 11:37:11 51°10.056 2°39.768 8.7458 3.606686 32.630334 -2.871232
2007-03-05 11:38:10 51°10.108 2°39.554 8.7332 3.609794 32.686906 -2.871232
2007-03-05 11:39:10 51°10.161 2°39.342 8.7376 3.612073 32.713348 -2.871232
2007-03-05 11:40:11 51°10.206 2°39.204 8.7424 3.614973 32.743433 -2.871232
2007-03-05 11:41:10 51°10.241 2°39.163 8.7578 3.618599 32.76594 -2.871232
2007-03-05 11:42:10 51°10.27 2°39.186 8.7482 3.619324 32.772365 -2.871232
2007-03-05 11:43:10 51°10.299 2°39.236 8.7659 3.61891 32.77082 -2.871232
2007-03-05 11:44:10 51°10.327 2°39.295 8.7593 3.620878 32.768752 -2.871232
2007-03-05 11:45:10 51°10.355 2°39.363 8.7502 3.62181 32.7974 -2.871232
2007-03-05 11:46:10 51°10.38 2°39.438 8.7505 3.62181 32.7974 -2.871232
2007-03-05 11:47:10 51°10.402 2°39.512 8.7552 3.622846 32.807831 -2.871232
2007-03-05 11:48:10 51°10.423 2°39.587 8.7574 3.622535 32.802073 -2.871232
2007-03-05 11:49:10 51°10.445 2°39.662 8.7546 3.622328 32.795606 -2.871232
2007-03-05 11:50:10 51°10.473 2°39.724 8.7614 3.623364 32.807788 -2.871232
2007-03-05 11:51:10 51°10.503 2°39.709 8.7581 3.623675 32.810041 -2.871232
2007-03-05 11:52:10 51°10.507 2°39.702 8.7644 3.625643 32.824599 -2.871232
2007-03-05 11:53:10 51°10.509 2°39.701 8.7604 3.626472 32.827683 -2.871232
2007-03-05 11:54:10 51°10.513 2°39.697 8.7642 3.626886 32.835361 -2.871232
2007-03-05 11:55:10 51°10.518 2°39.702 8.7681 3.628336 32.849086 -2.871232
2007-03-05 11:56:10 51°10.51 2°39.707 8.7649 3.62844 32.844867 -2.871232
2007-03-05 11:57:10 51°10.501 2°39.715 8.7623 3.628647 32.850461 -2.871232
2007-03-05 11:58:10 51°10.501 2°39.71 8.7654 3.628544 32.851172 -2.871232
2007-03-05 11:59:10 51°10.506 2°39.701 8.7621 3.628751 32.850627 -2.871232
2007-03-05 12:00:10 51°10.511 2°39.717 8.7655 3.629269 32.855841 -2.871232
2007-03-05 12:01:10 51°10.518 2°39.745 8.7615 3.629476 32.858805 -2.871232
2007-03-05 12:02:10 51°10.527 2°39.779 8.7642 3.629476 32.86056 -2.871232
2007-03-05 12:03:10 51°10.536 2°39.822 8.764 3.629476 32.856173 -2.871232
2007-03-05 12:04:10 51°10.544 2°39.868 8.7642 3.629579 32.858093 -2.871232
2007-03-05 12:05:10 51°10.552 2°39.92 8.7678 3.629579 32.858093 -2.871232
2007-03-05 12:06:11 51°10.56 2°39.977 8.769 3.62989 32.857712 -2.871232
2007-03-05 12:07:10 51°10.566 2°40.039 8.7672 3.629994 32.858755 -2.871232
2007-03-05 12:08:10 51°10.556 2°40.075 8.7653 3.630201 32.859086 -2.871232
2007-03-05 12:09:10 51°10.571 2°40.074 8.765 3.629372 32.857762 -2.871232
2007-03-05 12:10:10 51°10.6 2°40.084 8.7646 3.629372 32.857762 -2.871232
2007-03-05 12:11:10 51°10.624 2°40.097 8.7628 3.629579 32.860725 -2.871232
2007-03-05 12:12:10 51°10.647 2°40.138 8.7644 3.630305 32.868904 -2.871232
2007-03-05 12:13:11 51°10.675 2°40.202 8.7644 3.630823 32.873242 -2.871232
2007-03-05 12:14:10 51°10.739 2°40.202 8.7758 3.63103 32.876206 -2.871232
2007-03-05 12:15:10 51°10.827 2°40.179 8.7809 3.634241 32.897125 -2.871232
2007-03-05 12:16:10 51°10.927 2°40.302 8.7886 3.63911 32.938235 -2.871232
2007-03-05 12:17:10 51°11.03 2°40.442 8.7887 3.642321 32.966168 -2.871232
2007-03-05 12:18:10 51°11.104 2°40.539 8.784 3.645015 32.994166 -2.871232
2007-03-05 12:19:10 51°11.154 2°40.629 8.7867 3.644911 32.997526 -2.871232
2007-03-05 12:20:10 51°11.194 2°40.715 8.7798 3.645533 33.001143 -2.871232
2007-03-05 12:21:10 51°11.231 2°40.803 8.7823 3.644497 32.996876 -2.871232
2007-03-05 12:22:10 51°11.268 2°40.89 8.7865 3.645015 33.000331 -2.871232
2007-03-05 12:23:10 51°11.303 2°40.97 8.7862 3.645533 33.001143 -2.871232
2007-03-05 12:24:10 51°11.334 2°41.044 8.7938 3.644911 32.992242 -2.871232
2007-03-05 12:25:10 51°11.368 2°41.117 8.7898 3.644911 32.986961 -2.871232
2007-03-05 12:26:10 51°11.426 2°41.207 8.7871 3.643668 32.982367 -2.871232
2007-03-05 12:27:10 51°11.467 2°41.35 8.7872 3.642529 32.970013 -2.871232
2007-03-05 12:28:10 51°11.466 2°41.497 8.7864 3.642114 32.964962 -2.871232
2007-03-05 12:29:10 51°11.442 2°41.609 8.7868 3.643564 32.974283 -2.871232
2007-03-05 12:30:10 51°11.412 2°41.661 8.7807 3.642321 32.964408 -2.871232
2007-03-05 12:31:10 51°11.384 2°41.67 8.7837 3.639317 32.937683 -2.871232
2007-03-05 12:32:10 51°11.345 2°41.608 8.7843 3.640767 32.953163 -2.871232
2007-03-05 12:33:10 51°11.302 2°41.567 8.7869 3.641078 32.952774 -2.871232
2007-03-05 12:34:10 51°11.267 2°41.515 8.7852 3.640042 32.942346 -2.871232
2007-03-05 12:35:10 51°11.233 2°41.458 8.7826 3.63911 32.935597 -2.871232
2007-03-05 12:36:10 51°11.198 2°41.393 8.7832 3.638488 32.931098 -2.871232
2007-03-05 12:37:10 51°11.164 2°41.328 8.7836 3.639524 32.940648 -2.871232
2007-03-05 12:38:10 51°11.132 2°41.267 8.7859 3.639731 32.941854 -2.871232
2007-03-05 12:39:10 51°11.097 2°41.2 8.7842 3.639939 32.94394 -2.871232
2007-03-05 12:40:10 51°11.061 2°41.134 8.7848 3.639524 32.940648 -2.871232
2007-03-05 12:41:10 51°11.027 2°41.068 8.7859 3.639731 32.941854 -2.871232
2007-03-05 12:42:10 51°10.993 2°41.004 8.7851 3.639731 32.941854 -2.871232
2007-03-05 12:43:10 51°10.958 2°40.938 8.7856 3.639421 32.938726 -2.871232
2007-03-05 12:44:10 51°10.924 2°40.873 8.7866 3.639213 32.934004 -2.871232
2007-03-05 12:45:10 51°10.889 2°40.807 8.7871 3.638903 32.931754 -2.871232
2007-03-05 12:46:10 51°10.855 2°40.739 8.7891 3.638385 32.925662 -2.871232
2007-03-05 12:47:10 51°10.822 2°40.668 8.7886 3.637867 32.91957 -2.871232
2007-03-05 12:48:10 51°10.782 2°40.606 8.7885 3.636934 32.910186 -2.871232
2007-03-05 12:49:10 51°10.735 2°40.556 8.7864 3.635898 32.89976 -2.871232
2007-03-05 12:50:10 51°10.687 2°40.502 8.7873 3.634552 32.887963 -2.871232
2007-03-05 12:51:10 51°10.648 2°40.461 8.7874 3.633516 32.874906 -2.871232
2007-03-05 12:52:10 51°10.621 2°40.448 8.7889 3.632894 32.869528 -2.871232
2007-03-05 12:53:10 51°10.6 2°40.436 8.7912 3.631651 32.855266 -2.871232
2007-03-05 12:54:10 51°10.608 2°40.409 8.7852 3.630511 32.847307 -2.871232
2007-03-05 12:55:10 51°10.644 2°40.425 8.7891 3.630201 32.845933 -2.871232
2007-03-05 12:56:10 51°10.674 2°40.469 8.7968 3.630719 32.849392 -2.871232
2007-03-05 12:57:10 51°10.701 2°40.525 8.7955 3.632065 32.857682 -2.871232
2007-03-05 12:58:10 51°10.725 2°40.592 8.7903 3.632583 32.864647 -2.871232
2007-03-05 12:59:10 51°10.748 2°40.66 8.7917 3.632583 32.866401 -2.871232
2007-03-05 13:00:10 51°10.769 2°40.73 8.7973 3.632998 32.866186 -2.871232
2007-03-05 13:01:10 51°10.797 2°40.796 8.8005 3.633101 32.866351 -2.871232
2007-03-05 13:02:10 51°10.852 2°40.847 8.7976 3.633723 32.870851 -2.871232
2007-03-05 13:03:10 51°10.92 2°40.972 8.7946 3.634862 32.881438 -2.871232
2007-03-05 13:04:10 51°10.944 2°41.16 8.7943 3.636313 32.894275 -2.871232
2007-03-05 13:05:10 51°10.97 2°41.373 8.7944 3.635691 32.889777 -2.871232
2007-03-05 13:06:10 51°11 2°41.594 8.793 3.635173 32.887197 -2.871232
2007-03-05 13:07:10 51°11.026 2°41.816 8.7844 3.634552 32.88182 -2.871232
2007-03-05 13:08:10 51°11.046 2°42.038 8.7856 3.633516 32.875783 -2.871232
2007-03-05 13:09:10 51°11.066 2°42.257 8.779 3.63248 32.86799 -2.871232
2007-03-05 13:10:10 51°11.089 2°42.478 8.7775 3.630926 32.857614 -2.871232
2007-03-05 13:11:10 51°11.112 2°42.701 8.7724 3.629786 32.846146 -2.871232
2007-03-05 13:12:10 51°11.136 2°42.924 8.7619 3.627611 32.830388 -2.871232
2007-03-05 13:13:10 51°11.157 2°43.145 8.7514 3.623053 32.795023 -2.871232
2007-03-05 13:14:10 51°11.178 2°43.364 8.7501 3.619428 32.769907 -2.871232
2007-03-05 13:15:10 51°11.206 2°43.581 8.7509 3.617563 32.75026 -2.871232
2007-03-05 13:16:10 51°11.24 2°43.799 8.7493 3.616734 32.741043 -2.871232
2007-03-05 13:17:10 51°11.277 2°44.016 8.7437 3.615698 32.732364 -2.871232
2007-03-05 13:18:10 51°11.313 2°44.234 8.7448 3.614455 32.723348 -2.871232
2007-03-05 13:19:10 51°11.347 2°44.45 8.7399 3.612694 32.707369 -2.871232
2007-03-05 13:20:10 51°11.385 2°44.664 8.7402 3.610208 32.681471 -2.871232
2007-03-05 13:21:10 51°11.421 2°44.878 8.737 3.606375 32.64813 -2.871232
2007-03-05 13:22:10 51°11.462 2°45.092 8.7336 3.601921 32.605916 -2.871232
2007-03-05 13:23:10 51°11.519 2°45.303 8.7278 3.595084 32.539732 -2.871232
2007-03-05 13:24:10 51°11.561 2°45.52 8.7184 3.587626 32.470778 -2.871232
2007-03-05 13:25:10 51°11.601 2°45.736 8.7148 3.582965 32.432558 -2.871232
2007-03-05 13:26:11 51°11.643 2°45.954 8.7136 3.579547 32.399036 -2.871232
2007-03-05 13:27:10 51°11.693 2°46.164 8.7148 3.578822 32.393474 -2.871232
2007-03-05 13:28:10 51°11.749 2°46.38 8.7162 3.578615 32.390524 -2.871232
2007-03-05 13:29:10 51°11.805 2°46.598 8.7169 3.579133 32.393136 -2.871232
2007-03-05 13:30:10 51°11.859 2°46.816 8.7195 3.583069 32.432733 -2.871232
2007-03-05 13:31:10 51°11.914 2°47.035 8.7152 3.585969 32.460178 -2.871232
2007-03-05 13:32:10 51°11.973 2°47.247 8.71 3.592081 32.526024 -2.871232
2007-03-05 13:33:10 51°12.033 2°47.456 8.7106 3.596328 32.574872 -2.871232
2007-03-05 13:34:10 51°12.096 2°47.66 8.7104 3.595085 32.560615 -2.871232
2007-03-05 13:35:10 51°12.161 2°47.86 8.7101 3.593117 32.54167 -2.871232
2007-03-05 13:36:10 51°12.228 2°48.055 8.7088 3.592081 32.531242 -2.871232
2007-03-05 13:37:10 51°12.304 2°48.242 8.7122 3.590941 32.519772 -2.871232
2007-03-05 13:38:10 51°12.375 2°48.434 8.7098 3.590838 32.514382 -2.871232
2007-03-05 13:39:10 51°12.446 2°48.627 8.7108 3.589491 32.505174 -2.871232
2007-03-05 13:40:10 51°12.52 2°48.822 8.707 3.58918 32.502046 -2.871232
2007-03-05 13:41:10 51°12.592 2°49.016 8.7054 3.588145 32.494226 -2.871232
2007-03-05 13:42:10 51°12.663 2°49.211 8.7015 3.587316 32.487622 -2.871232
2007-03-05 13:43:10 51°12.738 2°49.402 8.6974 3.586073 32.477716 -2.871232
2007-03-05 13:44:10 51°12.81 2°49.594 8.6989 3.585037 32.471631 -2.871232
2007-03-05 13:45:10 51°12.887 2°49.788 8.7001 3.585037 32.470763 -2.871232
2007-03-05 13:46:10 51°12.962 2°49.984 8.6976 3.585141 32.4692 -2.871232
2007-03-05 13:47:10 51°13.036 2°50.178 8.6931 3.584726 32.47024 -2.871232
2007-03-05 13:48:10 51°13.111 2°50.373 8.6895 3.584416 32.468849 -2.871232
2007-03-05 13:49:10 51°13.189 2°50.566 8.6891 3.584209 32.470238 -2.871232
2007-03-05 13:50:10 51°13.267 2°50.762 8.6876 3.584209 32.472844 -2.871232
2007-03-05 13:51:10 51°13.343 2°50.959 8.6912 3.584519 32.474236 -2.871232
2007-03-05 13:52:10 51°13.42 2°51.156 8.6882 3.585037 32.478582 -2.871232
2007-03-05 13:53:10 51°13.497 2°51.353 8.6839 3.585348 32.486057 -2.871232
2007-03-05 13:54:10 51°13.574 2°51.55 8.6847 3.585866 32.491273 -2.871232
2007-03-05 13:55:10 51°13.649 2°51.746 8.6802 3.586695 32.501359 -2.871232
2007-03-05 13:56:10 51°13.723 2°51.944 8.682 3.587731 32.513532 -2.871232
2007-03-05 13:57:10 51°13.798 2°52.144 8.6819 3.588766 32.523097 -2.871232
2007-03-05 13:58:10 51°13.869 2°52.346 8.6791 3.589595 32.532315 -2.871232
2007-03-05 13:59:10 51°13.937 2°52.552 8.6852 3.590009 32.533877 -2.871232
2007-03-05 14:00:10 51°14.006 2°52.759 8.6878 3.590631 32.539267 -2.871232
2007-03-05 14:01:10 51°14.077 2°52.965 8.6868 3.591149 32.543614 -2.871232
2007-03-05 14:02:10 51°14.147 2°53.169 8.6851 3.592495 32.55805 -2.871232
2007-03-05 14:03:10 51°14.214 2°53.372 8.6796 3.594049 32.575448 -2.871232
2007-03-05 14:04:10 51°14.272 2°53.577 8.6813 3.595189 32.588673 -2.871232
2007-03-05 14:05:10 51°14.331 2°53.785 8.6792 3.594671 32.58171 -2.871232
2007-03-05 14:06:10 51°14.384 2°54.004 8.6816 3.592703 32.564495 -2.871232
2007-03-05 14:07:10 51°14.435 2°54.256 8.6786 3.589595 32.533186 -2.871232
2007-03-05 14:08:10 51°14.463 2°54.558 8.6743 3.58628 32.497185 -2.871232
2007-03-05 14:09:10 51°14.422 2°54.847 8.6646 3.579962 32.436157 -2.871232
2007-03-05 14:10:10 51°14.343 2°55.108 8.6455 3.572608 32.383776 -2.871232
2007-03-05 14:11:10 51°14.231 2°55.311 8.6127 3.399766 30.665653 -2.871232
2007-03-05 14:12:10 51°14.094 2°55.433 8.5771 3.155066 28.266995 -2.871232
2007-03-05 14:13:10 51°13.969 2°55.529 8.5641 3.187561 28.616705 -2.871232
2007-03-05 14:14:10 51°13.872 2°55.602 8.5587 3.107053 27.816515 -2.871232
2007-03-05 14:15:10 51°13.791 2°55.673 8.5733 3.060906 27.358304 -2.871232
2007-03-05 14:16:10 51°13.718 2°55.777 8.568 3.084703 27.591103 -2.871232
2007-03-05 14:17:14 51°13.656 2°55.902 8.5591 3.069597 27.440428 -2.871232
2007-03-05 14:18:14 51°13.611 2°56.006 8.5627 3.165622 28.401248 -2.871232
2007-03-05 14:19:14 51°13.597 2°56.082 8.574 2.906671 25.83166 -2.871232
2007-03-05 14:20:14 51°13.597 2°56.095 8.5399 3.108501 27.8301 -2.871232